Time;durP1;ratioP1;P1;durP2;ratioP2;P2;SDS_P1;SDS_P2;PMS_P1;PMS_P2;Temp;Humidity;BMP_temperature;BMP_pressure;BME280_temperature;BME280_humidity;BME280_pressure;Samples;Min_cycle;Max_cycle;Signal;HPM_P1;HPM_P2
2022/04/10 00:01:12;;;;;;;0.40;0.40;;;4.30;99.90;;;;;;4421378;32;20146;-67
2022/04/10 00:03:37;;;;;;;0.32;0.32;;;4.20;99.90;;;;;;4422092;32;20077;-67
2022/04/10 00:06:03;;;;;;;0.30;0.30;;;4.20;99.90;;;;;;4424087;32;20078;-67
2022/04/10 00:08:28;;;;;;;0.32;0.32;;;4.20;99.90;;;;;;4424440;32;20058;-67
2022/04/10 00:10:53;;;;;;;0.40;0.40;;;4.20;99.90;;;;;;4420874;32;20111;-67
2022/04/10 00:13:19;;;;;;;0.30;0.30;;;4.20;99.90;;;;;;4423348;32;20537;-67
2022/04/10 00:15:44;;;;;;;0.40;0.40;;;4.10;99.90;;;;;;4425404;32;20106;-67
2022/04/10 00:18:10;;;;;;;39.05;1.02;;;4.10;99.90;;;;;;4422263;32;20582;-67
2022/04/10 00:20:36;;;;;;;0.30;0.30;;;4.00;99.90;;;;;;4421915;32;20073;-67
2022/04/10 00:23:02;;;;;;;1.77;1.37;;;4.00;99.90;;;;;;4425060;32;20078;-67
2022/04/10 00:25:28;;;;;;;1.75;1.30;;;3.90;99.90;;;;;;4421295;32;20132;-67
2022/04/10 00:27:53;;;;;;;0.30;0.30;;;3.80;99.90;;;;;;4422220;32;20089;-67
2022/04/10 00:30:19;;;;;;;0.40;0.40;;;3.80;99.90;;;;;;4423079;32;20076;-66
2022/04/10 00:32:44;;;;;;;0.50;0.50;;;3.80;99.90;;;;;;4424291;32;20090;-66
2022/04/10 00:35:11;;;;;;;6.07;1.23;;;3.70;99.90;;;;;;4424043;32;20074;-68
2022/04/10 00:37:38;;;;;;;0.40;0.40;;;3.80;99.90;;;;;;4423617;32;20132;-68
2022/04/10 00:40:05;;;;;;;0.73;0.68;;;3.80;99.90;;;;;;4422734;32;20101;-68
2022/04/10 00:42:34;;;;;;;0.40;0.40;;;3.70;99.90;;;;;;4427338;32;20078;-68
2022/04/10 00:45:00;;;;;;;0.50;0.50;;;3.80;99.90;;;;;;4426587;32;20078;-67
2022/04/10 00:47:25;;;;;;;0.50;0.50;;;3.80;99.90;;;;;;4426783;32;20061;-67
2022/04/10 00:49:51;;;;;;;0.70;0.70;;;3.70;99.90;;;;;;4425893;32;20090;-67
2022/04/10 00:52:18;;;;;;;0.50;0.50;;;3.60;99.90;;;;;;4424688;32;20066;-67
2022/04/10 00:54:44;;;;;;;0.60;0.60;;;3.70;99.90;;;;;;4426855;32;20069;-67
2022/04/10 00:57:11;;;;;;;0.88;0.88;;;3.70;99.90;;;;;;4425572;32;20812;-67
2022/04/10 00:59:36;;;;;;;0.37;0.37;;;3.60;99.90;;;;;;4424028;32;20092;-68
2022/04/10 01:02:02;;;;;;;0.40;0.40;;;3.60;99.90;;;;;;4422287;32;20097;-68
2022/04/10 01:04:28;;;;;;;0.35;0.35;;;3.50;99.90;;;;;;4428373;32;20505;-67
2022/04/10 01:06:56;;;;;;;0.60;0.60;;;3.60;99.90;;;;;;4426419;32;20089;-68
2022/04/10 01:09:23;;;;;;;0.30;0.30;;;3.60;99.90;;;;;;4424836;32;20092;-67
2022/04/10 01:11:51;;;;;;;0.50;0.50;;;3.60;99.90;;;;;;4423172;32;20516;-67
2022/04/10 01:14:17;;;;;;;0.75;0.50;;;3.60;99.90;;;;;;4425818;32;20073;-67
2022/04/10 01:16:43;;;;;;;0.40;0.40;;;3.60;99.90;;;;;;4426332;32;20079;-66
2022/04/10 01:19:08;;;;;;;0.50;0.50;;;3.60;99.90;;;;;;4426272;32;20166;-66
2022/04/10 01:21:40;;;;;;;0.40;0.40;;;3.50;99.90;;;;;;4423001;32;20065;-67
2022/04/10 01:24:06;;;;;;;0.30;0.30;;;3.60;99.90;;;;;;4417280;32;20086;-68
2022/04/10 01:26:32;;;;;;;1.12;0.80;;;3.60;99.90;;;;;;4422995;32;20124;-68
2022/04/10 01:29:02;;;;;;;3.12;0.82;;;3.60;99.90;;;;;;4425576;32;20073;-68
2022/04/10 01:31:30;;;;;;;0.40;0.40;;;3.60;99.90;;;;;;4423216;32;20099;-67
2022/04/10 01:33:58;;;;;;;0.30;0.30;;;3.60;99.90;;;;;;4424025;32;20290;-67
2022/04/10 01:36:25;;;;;;;0.60;0.60;;;3.60;99.90;;;;;;4426591;32;20078;-67
2022/04/10 01:38:52;;;;;;;0.60;0.60;;;3.70;99.90;;;;;;4424249;32;20081;-67
2022/04/10 01:41:18;;;;;;;0.40;0.40;;;3.70;99.90;;;;;;4421158;32;20517;-67
2022/04/10 01:43:46;;;;;;;0.30;0.30;;;3.80;99.90;;;;;;4424163;32;20065;-67
2022/04/10 01:46:12;;;;;;;0.30;0.30;;;3.80;99.90;;;;;;4428369;32;20457;-67
2022/04/10 01:48:38;;;;;;;0.40;0.40;;;3.80;99.90;;;;;;4423951;32;20073;-67
2022/04/10 01:51:03;;;;;;;0.50;0.50;;;3.70;99.90;;;;;;4422951;32;20073;-67
2022/04/10 01:53:30;;;;;;;0.52;0.52;;;3.60;99.90;;;;;;4423897;32;20089;-67
2022/04/10 01:55:55;;;;;;;0.50;0.50;;;3.60;99.90;;;;;;4424845;32;20550;-67
2022/04/10 01:58:21;;;;;;;0.30;0.30;;;3.40;99.90;;;;;;4424361;32;20069;-67
2022/04/10 02:00:46;;;;;;;0.40;0.40;;;3.50;99.90;;;;;;4423416;32;20081;-66
2022/04/10 02:03:12;;;;;;;0.40;0.40;;;3.50;99.90;;;;;;4424396;32;20074;-67
2022/04/10 02:05:37;;;;;;;0.40;0.40;;;3.40;99.90;;;;;;4426993;32;20085;-68
2022/04/10 02:08:03;;;;;;;0.30;0.30;;;3.50;99.90;;;;;;4425529;32;20629;-66
2022/04/10 02:10:29;;;;;;;0.40;0.40;;;3.50;99.90;;;;;;4425051;32;20065;-68
2022/04/10 02:12:54;;;;;;;2.20;0.95;;;3.40;99.90;;;;;;4424743;32;20431;-68
2022/04/10 02:15:20;;;;;;;0.60;0.60;;;3.40;99.90;;;;;;4422614;32;20058;-66
2022/04/10 02:17:45;;;;;;;1.85;0.75;;;3.40;99.90;;;;;;4424941;32;20089;-67
2022/04/10 02:20:10;;;;;;;0.45;0.45;;;3.40;99.90;;;;;;4423492;32;20078;-67
2022/04/10 02:22:36;;;;;;;0.30;0.30;;;3.50;99.90;;;;;;4424964;32;20173;-67
2022/04/10 02:25:02;;;;;;;0.50;0.50;;;3.40;99.90;;;;;;4426177;32;20089;-67
2022/04/10 02:27:28;;;;;;;0.43;0.43;;;3.50;99.90;;;;;;4424035;32;20602;-67
2022/04/10 02:29:53;;;;;;;0.30;0.30;;;3.50;99.90;;;;;;4423585;32;20516;-67
2022/04/10 02:32:19;;;;;;;1.70;1.23;;;3.50;99.90;;;;;;4424822;32;20095;-67
2022/04/10 02:34:44;;;;;;;0.43;0.43;;;3.60;99.90;;;;;;4426633;32;20081;-67
2022/04/10 02:37:10;;;;;;;0.88;0.88;;;3.50;99.90;;;;;;4425901;32;20077;-67
2022/04/10 02:39:35;;;;;;;0.30;0.30;;;3.50;99.90;;;;;;4423710;32;20294;-67
2022/04/10 02:42:01;;;;;;;0.30;0.30;;;3.50;99.90;;;;;;4423985;32;20448;-67
2022/04/10 02:44:26;;;;;;;0.43;0.43;;;3.50;99.90;;;;;;4422488;32;20073;-67
2022/04/10 02:46:52;;;;;;;0.40;0.40;;;3.50;99.90;;;;;;4422916;32;20066;-67
2022/04/10 02:49:18;;;;;;;0.30;0.30;;;3.50;99.90;;;;;;4423742;32;20066;-67
2022/04/10 02:51:46;;;;;;;0.40;0.40;;;3.50;99.90;;;;;;4423838;32;20086;-67
2022/04/10 02:54:11;;;;;;;0.68;0.68;;;3.50;99.90;;;;;;4424662;32;20069;-67
2022/04/10 02:56:37;;;;;;;0.30;0.30;;;3.40;99.90;;;;;;4426275;32;20449;-67
2022/04/10 02:59:02;;;;;;;0.52;0.52;;;3.40;99.90;;;;;;4421427;32;20065;-67
2022/04/10 03:01:28;;;;;;;0.43;0.43;;;3.50;99.90;;;;;;4421010;32;20077;-67
2022/04/10 03:03:53;;;;;;;0.30;0.30;;;3.40;99.90;;;;;;4423514;32;20069;-67
2022/04/10 03:06:19;;;;;;;0.55;0.55;;;3.40;99.90;;;;;;4422905;32;20117;-67
2022/04/10 03:08:45;;;;;;;0.30;0.30;;;3.50;99.90;;;;;;4423295;32;20089;-67
2022/04/10 03:11:10;;;;;;;0.75;0.75;;;3.50;99.90;;;;;;4421040;32;20097;-67
2022/04/10 03:13:35;;;;;;;0.40;0.40;;;3.50;99.90;;;;;;4424208;32;20124;-67
2022/04/10 03:16:02;;;;;;;0.30;0.30;;;3.50;99.90;;;;;;4423239;32;20082;-68
2022/04/10 03:18:27;;;;;;;0.55;0.55;;;3.50;99.90;;;;;;4423503;32;20065;-67
2022/04/10 03:20:53;;;;;;;1.75;0.60;;;3.50;99.90;;;;;;4421752;32;20077;-68
2022/04/10 03:23:18;;;;;;;0.30;0.30;;;3.50;99.90;;;;;;4426197;32;20070;-68
2022/04/10 03:25:44;;;;;;;0.62;0.62;;;3.50;99.90;;;;;;4426892;32;20402;-68
2022/04/10 03:28:09;;;;;;;0.40;0.40;;;3.50;99.90;;;;;;4422881;32;20077;-67
2022/04/10 03:30:35;;;;;;;0.40;0.40;;;3.50;99.90;;;;;;4423097;32;20069;-66
2022/04/10 03:33:00;;;;;;;0.60;0.60;;;3.50;99.90;;;;;;4422708;32;20449;-68
2022/04/10 03:35:26;;;;;;;0.40;0.40;;;3.50;99.90;;;;;;4425004;32;20081;-67
2022/04/10 03:37:51;;;;;;;0.40;0.40;;;3.50;99.90;;;;;;4424369;32;20065;-67
2022/04/10 03:40:17;;;;;;;0.40;0.40;;;3.50;99.90;;;;;;4420796;32;20069;-67
2022/04/10 03:42:42;;;;;;;0.40;0.40;;;3.50;99.90;;;;;;4424987;32;20073;-67
2022/04/10 03:45:09;;;;;;;1.95;1.52;;;3.50;99.90;;;;;;4423699;32;20074;-68
2022/04/10 03:47:35;;;;;;;0.40;0.40;;;3.50;99.90;;;;;;4423022;32;20065;-67
2022/04/10 03:50:00;;;;;;;0.50;0.50;;;3.40;99.90;;;;;;4426006;32;20600;-68
2022/04/10 03:52:26;;;;;;;1.37;1.17;;;3.50;99.90;;;;;;4421821;32;20093;-66
2022/04/10 03:54:51;;;;;;;0.30;0.30;;;3.50;99.90;;;;;;4428903;32;20508;-68
2022/04/10 03:57:17;;;;;;;0.60;0.60;;;3.60;99.90;;;;;;4426840;32;20073;-68
2022/04/10 03:59:42;;;;;;;2.72;1.30;;;3.60;99.90;;;;;;4428799;32;20069;-68
2022/04/10 04:02:08;;;;;;;0.30;0.30;;;3.60;99.90;;;;;;4429045;32;20062;-69
2022/04/10 04:04:36;;;;;;;0.30;0.30;;;3.70;99.90;;;;;;4429822;32;20120;-69
2022/04/10 04:07:02;;;;;;;0.85;0.85;;;3.70;99.90;;;;;;4429424;32;20081;-69
2022/04/10 04:09:27;;;;;;;0.65;0.65;;;3.70;99.90;;;;;;4426788;32;20097;-68
2022/04/10 04:11:53;;;;;;;1.12;0.88;;;3.80;99.90;;;;;;4422400;32;20081;-69
2022/04/10 04:14:20;;;;;;;1.25;1.15;;;3.70;99.90;;;;;;4426390;32;20089;-68
2022/04/10 04:16:46;;;;;;;0.50;0.50;;;3.60;99.90;;;;;;4430842;32;20089;-69
2022/04/10 04:19:11;;;;;;;0.50;0.50;;;3.70;99.90;;;;;;4432205;32;20092;-69
2022/04/10 04:21:37;;;;;;;0.50;0.50;;;3.70;99.90;;;;;;4429986;32;20089;-69
2022/04/10 04:24:02;;;;;;;0.40;0.40;;;3.60;99.90;;;;;;4429386;32;20097;-69
2022/04/10 04:26:28;;;;;;;0.85;0.85;;;3.70;99.90;;;;;;4430124;32;20080;-68
2022/04/10 04:28:54;;;;;;;0.37;0.37;;;3.80;99.90;;;;;;4429037;32;20590;-69
2022/04/10 04:31:19;;;;;;;0.30;0.30;;;3.90;99.90;;;;;;4430285;32;20074;-69
2022/04/10 04:33:44;;;;;;;0.47;0.47;;;3.90;99.90;;;;;;4429259;32;20183;-69
2022/04/10 04:36:10;;;;;;;0.88;0.85;;;3.90;99.90;;;;;;4429967;32;20065;-69
2022/04/10 04:38:35;;;;;;;0.30;0.30;;;4.00;99.90;;;;;;4431311;32;20150;-69
2022/04/10 04:41:02;;;;;;;0.65;0.65;;;4.00;99.90;;;;;;4430785;32;20065;-69
2022/04/10 04:43:27;;;;;;;0.60;0.60;;;4.00;99.90;;;;;;4428879;32;20318;-69
2022/04/10 04:45:53;;;;;;;1.45;1.10;;;3.90;99.90;;;;;;4432728;32;20430;-69
2022/04/10 04:48:18;;;;;;;0.30;0.30;;;3.90;99.90;;;;;;4430639;32;20069;-68
2022/04/10 04:50:44;;;;;;;0.40;0.40;;;3.90;99.90;;;;;;4430614;32;20119;-68
2022/04/10 04:53:10;;;;;;;0.40;0.40;;;4.00;99.90;;;;;;4427425;32;20086;-68
2022/04/10 04:55:35;;;;;;;0.40;0.40;;;4.00;99.90;;;;;;4428237;32;20073;-69
2022/04/10 04:58:01;;;;;;;0.70;0.70;;;3.90;99.90;;;;;;4430047;32;20127;-69
2022/04/10 05:00:26;;;;;;;0.40;0.40;;;3.90;99.90;;;;;;4428855;32;20088;-69
2022/04/10 05:02:52;;;;;;;0.40;0.40;;;3.90;99.90;;;;;;4427412;32;20081;-68
2022/04/10 05:05:17;;;;;;;0.30;0.30;;;4.00;99.90;;;;;;4430790;32;20062;-69
2022/04/10 05:07:43;;;;;;;0.30;0.30;;;3.80;99.90;;;;;;4427593;32;20069;-67
2022/04/10 05:10:09;;;;;;;0.77;0.77;;;3.90;99.90;;;;;;4429148;32;20596;-69
2022/04/10 05:12:34;;;;;;;0.60;0.60;;;4.00;99.90;;;;;;4427963;32;20065;-67
2022/04/10 05:15:04;;;;;;;2.85;1.15;;;4.00;99.90;;;;;;4420802;32;20089;-69
2022/04/10 05:17:30;;;;;;;0.40;0.40;;;4.00;99.90;;;;;;4428013;32;20123;-68
2022/04/10 05:19:55;;;;;;;0.88;0.88;;;4.00;99.90;;;;;;4429026;32;20556;-69
2022/04/10 05:22:21;;;;;;;0.60;0.60;;;4.10;99.90;;;;;;4422830;32;20102;-69
2022/04/10 05:24:47;;;;;;;0.50;0.50;;;4.10;99.90;;;;;;4430390;32;20077;-69
2022/04/10 05:27:13;;;;;;;0.30;0.30;;;4.10;99.90;;;;;;4429306;32;20134;-69
2022/04/10 05:29:38;;;;;;;0.40;0.40;;;4.10;99.90;;;;;;4431434;32;20085;-69
2022/04/10 05:32:04;;;;;;;0.47;0.47;;;4.10;99.90;;;;;;4429815;32;20113;-69
2022/04/10 05:34:29;;;;;;;0.62;0.62;;;4.20;99.90;;;;;;4430201;32;20054;-69
2022/04/10 05:36:55;;;;;;;0.65;0.55;;;4.10;99.90;;;;;;4429593;32;20061;-69
2022/04/10 05:39:20;;;;;;;0.50;0.50;;;4.20;99.90;;;;;;4429733;32;20179;-69
2022/04/10 05:41:46;;;;;;;0.52;0.52;;;4.20;99.90;;;;;;4430433;32;20085;-69
2022/04/10 05:44:11;;;;;;;0.65;0.65;;;4.30;99.90;;;;;;4428597;32;20139;-69
2022/04/10 05:46:38;;;;;;;1.95;1.35;;;4.30;99.90;;;;;;4428578;32;20484;-69
2022/04/10 05:49:05;;;;;;;0.30;0.30;;;4.40;99.90;;;;;;4427777;32;20497;-69
2022/04/10 05:51:31;;;;;;;0.52;0.52;;;4.40;99.90;;;;;;4431701;32;20077;-69
2022/04/10 05:53:56;;;;;;;2.20;1.12;;;4.30;99.90;;;;;;4430960;32;20431;-69
2022/04/10 05:56:22;;;;;;;0.57;0.57;;;4.30;99.90;;;;;;4427018;32;20392;-69
2022/04/10 05:58:47;;;;;;;0.37;0.37;;;4.30;99.90;;;;;;4431186;32;20076;-69
2022/04/10 06:01:13;;;;;;;0.30;0.30;;;4.40;99.90;;;;;;4427485;32;20173;-69
2022/04/10 06:03:39;;;;;;;0.30;0.30;;;4.50;99.90;;;;;;4428983;32;20504;-68
2022/04/10 06:06:04;;;;;;;0.30;0.30;;;4.50;99.90;;;;;;4431181;32;20069;-69
2022/04/10 06:08:30;;;;;;;1.95;1.20;;;4.50;99.90;;;;;;4427888;32;20065;-69
2022/04/10 06:10:56;;;;;;;0.85;0.77;;;4.40;99.90;;;;;;4425943;32;20093;-68
2022/04/10 06:13:21;;;;;;;0.45;0.45;;;4.50;99.90;;;;;;4428609;32;20098;-69
2022/04/10 06:15:47;;;;;;;1.35;0.82;;;4.50;99.90;;;;;;4428803;32;20124;-69
2022/04/10 06:18:13;;;;;;;0.50;0.50;;;4.60;99.90;;;;;;4429827;32;20457;-69
2022/04/10 06:20:38;;;;;;;2.00;1.40;;;4.60;99.90;;;;;;4427164;32;20066;-69
2022/04/10 06:23:04;;;;;;;0.85;0.85;;;4.60;99.90;;;;;;4431064;32;20074;-69
2022/04/10 06:25:30;;;;;;;0.37;0.37;;;4.60;99.90;;;;;;4430428;32;20092;-67
2022/04/10 06:27:57;;;;;;;12.37;1.95;;;4.60;99.90;;;;;;4417616;32;20134;-68
2022/04/10 06:30:22;;;;;;;0.40;0.40;;;4.70;99.90;;;;;;4427753;32;20077;-68
2022/04/10 06:32:48;;;;;;;0.50;0.50;;;4.60;99.90;;;;;;4428746;32;20089;-68
2022/04/10 06:35:14;;;;;;;0.40;0.40;;;4.50;99.90;;;;;;4431875;32;20098;-68
2022/04/10 06:37:40;;;;;;;0.40;0.40;;;4.70;99.90;;;;;;4430100;32;20077;-68
2022/04/10 06:40:06;;;;;;;0.50;0.50;;;4.90;99.90;;;;;;4428363;32;20086;-68
2022/04/10 06:42:32;;;;;;;0.43;0.43;;;4.90;99.90;;;;;;4428945;32;20081;-68
2022/04/10 06:44:57;;;;;;;1.20;1.10;;;4.90;99.90;;;;;;4430096;32;20407;-68
2022/04/10 06:47:23;;;;;;;0.35;0.35;;;5.00;99.90;;;;;;4415477;32;20077;-68
2022/04/10 06:49:48;;;;;;;0.55;0.52;;;4.90;99.90;;;;;;4429263;32;20141;-68
2022/04/10 06:52:14;;;;;;;0.40;0.40;;;4.90;99.90;;;;;;4430229;32;20090;-68
2022/04/10 06:54:39;;;;;;;0.30;0.30;;;4.90;99.90;;;;;;4431505;32;20092;-68
2022/04/10 06:57:05;;;;;;;0.30;0.30;;;5.00;99.90;;;;;;4431527;32;20085;-68
2022/04/10 06:59:30;;;;;;;0.37;0.37;;;5.00;99.90;;;;;;4431696;32;20118;-68
2022/04/10 07:01:56;;;;;;;0.60;0.57;;;5.10;99.90;;;;;;4430689;32;20069;-68
2022/04/10 07:04:21;;;;;;;1.20;0.40;;;5.10;99.90;;;;;;4428849;32;20587;-68
2022/04/10 07:06:47;;;;;;;1.05;1.02;;;5.10;99.90;;;;;;4430334;32;20089;-68
2022/04/10 07:09:14;;;;;;;0.52;0.52;;;5.00;99.90;;;;;;4430760;32;20124;-69
2022/04/10 07:11:40;;;;;;;0.50;0.50;;;5.10;99.90;;;;;;4429911;32;20073;-68
2022/04/10 07:14:06;;;;;;;0.30;0.30;;;5.00;99.90;;;;;;4428929;32;20077;-68
2022/04/10 07:16:31;;;;;;;2.47;1.60;;;5.10;99.90;;;;;;4429211;32;20077;-69
2022/04/10 07:18:57;;;;;;;0.30;0.30;;;5.10;99.90;;;;;;4428798;32;20065;-68
2022/04/10 07:23:41;;;;;;;0.52;0.52;;;5.10;99.90;;;;;;4428647;32;20132;-68
2022/04/10 07:24:09;;;;;;;0.30;0.30;;;5.30;99.90;;;;;;4417086;32;20089;-68
2022/04/10 07:26:35;;;;;;;0.40;0.40;;;5.20;99.90;;;;;;4428969;32;20513;-68
2022/04/10 07:29:01;;;;;;;0.43;0.43;;;5.30;99.90;;;;;;4429448;32;20487;-68
2022/04/10 07:31:27;;;;;;;1.77;1.25;;;5.30;99.90;;;;;;4428228;32;20430;-68
2022/04/10 07:33:52;;;;;;;0.40;0.40;;;5.30;99.90;;;;;;4429372;32;20120;-68
2022/04/10 07:36:18;;;;;;;0.43;0.43;;;5.40;99.90;;;;;;4428256;32;83385;-68
2022/04/10 07:38:43;;;;;;;0.40;0.40;;;5.60;99.90;;;;;;4428536;32;20132;-68
2022/04/10 07:41:09;;;;;;;0.45;0.45;;;5.60;99.90;;;;;;4427820;32;20069;-68
2022/04/10 07:43:36;;;;;;;0.45;0.45;;;5.40;99.90;;;;;;4427570;32;20093;-68
2022/04/10 07:47:34;;;;;;;0.40;0.40;;;5.20;99.90;;;;;;4429431;32;20057;-68
2022/04/10 07:48:47;;;;;;;0.30;0.30;;;5.30;99.90;;;;;;4417359;32;20121;-68
2022/04/10 07:51:12;;;;;;;0.30;0.30;;;5.30;99.90;;;;;;4428564;32;20077;-68
2022/04/10 07:53:38;;;;;;;0.50;0.50;;;5.30;99.90;;;;;;4430124;32;20078;-68
2022/04/10 07:56:04;;;;;;;0.55;0.55;;;5.40;99.90;;;;;;4427262;32;20080;-68
2022/04/10 07:58:29;;;;;;;0.43;0.43;;;5.50;99.90;;;;;;4429529;32;20069;-68
2022/04/10 08:00:55;;;;;;;0.52;0.52;;;5.60;99.90;;;;;;4429441;32;20086;-69
2022/04/10 08:03:20;;;;;;;0.40;0.40;;;5.60;99.90;;;;;;4429073;32;20077;-68
2022/04/10 08:05:46;;;;;;;0.40;0.40;;;5.50;99.90;;;;;;4427693;32;20131;-68
2022/04/10 08:08:11;;;;;;;0.30;0.30;;;5.40;99.90;;;;;;4427703;32;20065;-68
2022/04/10 08:10:38;;;;;;;0.40;0.40;;;5.40;99.90;;;;;;4413716;32;20106;-69
2022/04/10 08:13:04;;;;;;;0.30;0.30;;;5.50;99.90;;;;;;4429717;32;20450;-69
2022/04/10 08:15:30;;;;;;;0.90;0.65;;;5.60;99.90;;;;;;4430474;32;20077;-68
2022/04/10 08:17:56;;;;;;;0.30;0.30;;;5.60;99.90;;;;;;4413755;32;20128;-68
2022/04/10 08:20:23;;;;;;;0.62;0.62;;;5.70;99.90;;;;;;4427117;32;20086;-69
2022/04/10 08:22:49;;;;;;;0.30;0.30;;;5.80;99.90;;;;;;4427193;32;20097;-68
2022/04/10 08:25:16;;;;;;;0.20;0.20;;;6.10;99.90;;;;;;4410128;32;20061;-68
2022/04/10 08:27:42;;;;;;;0.30;0.30;;;6.10;99.90;;;;;;4424965;32;20089;-68
2022/04/10 08:30:09;;;;;;;1.67;0.88;;;6.20;99.90;;;;;;4429916;32;20074;-68
2022/04/10 08:32:38;;;;;;;0.50;0.50;;;6.20;99.90;;;;;;4428548;32;20513;-68
2022/04/10 08:35:05;;;;;;;0.30;0.30;;;6.20;99.90;;;;;;4428300;32;20074;-69
2022/04/10 08:37:30;;;;;;;0.30;0.30;;;6.40;99.90;;;;;;4427936;32;20085;-69
2022/04/10 08:39:56;;;;;;;0.20;0.20;;;6.60;99.90;;;;;;4428520;32;20777;-68
2022/04/10 08:42:21;;;;;;;0.60;0.60;;;6.60;99.90;;;;;;4426206;32;20090;-68
2022/04/10 08:44:47;;;;;;;0.43;0.43;;;6.60;99.90;;;;;;4429329;32;20123;-68
2022/04/10 08:47:20;;;;;;;0.73;0.52;;;6.60;99.90;;;;;;4425494;32;20078;-68
2022/04/10 08:49:46;;;;;;;1.45;0.73;;;6.70;99.90;;;;;;4423695;32;20235;-68
2022/04/10 08:52:12;;;;;;;0.30;0.30;;;6.70;99.90;;;;;;4428588;32;20073;-68
2022/04/10 08:54:41;;;;;;;1.80;1.27;;;6.90;99.90;;;;;;4426016;32;20090;-68
2022/04/10 08:57:06;;;;;;;1.48;0.50;;;7.20;99.90;;;;;;4427583;32;20141;-68
2022/04/10 08:59:32;;;;;;;0.30;0.30;;;7.30;99.90;;;;;;4428109;32;20085;-68
2022/04/10 09:01:58;;;;;;;5.18;1.83;;;7.10;99.90;;;;;;4428499;32;20094;-67
2022/04/10 09:04:24;;;;;;;0.30;0.30;;;6.90;99.90;;;;;;4431040;32;20567;-68
2022/04/10 09:07:00;;;;;;;0.35;0.35;;;6.70;99.90;;;;;;4432042;32;20081;-68
2022/04/10 09:09:26;;;;;;;8.02;0.93;;;6.80;99.90;;;;;;4430970;32;20235;-68
2022/04/10 09:11:53;;;;;;;2.72;1.02;;;6.80;99.90;;;;;;4430236;32;20513;-68
2022/04/10 09:14:22;;;;;;;0.57;0.57;;;7.00;99.90;;;;;;4429583;32;20085;-68
2022/04/10 09:17:16;;;;;;;0.30;0.30;;;6.90;99.90;;;;;;4430724;32;20105;-68
2022/04/10 09:19:44;;;;;;;1.50;1.20;;;6.90;99.90;;;;;;4426541;32;20180;-68
2022/04/10 09:22:35;;;;;;;7.07;1.42;;;6.90;99.90;;;;;;4428664;32;20125;-67
2022/04/10 09:25:04;;;;;;;0.50;0.50;;;6.90;99.90;;;;;;4424782;32;20080;-68
2022/04/10 09:27:32;;;;;;;0.45;0.45;;;6.80;99.90;;;;;;4426723;32;20153;-69
2022/04/10 09:29:58;;;;;;;0.30;0.30;;;6.60;99.90;;;;;;4430209;32;20494;-69
2022/04/10 09:32:44;;;;;;;1.25;0.62;;;6.50;99.90;;;;;;4431457;32;20078;-68
2022/04/10 09:35:12;;;;;;;3.37;1.60;;;6.50;99.90;;;;;;4431273;32;20443;-69
2022/04/10 09:37:43;;;;;;;0.70;0.70;;;6.50;99.90;;;;;;4424519;32;20527;-68
2022/04/10 09:40:27;;;;;;;0.50;0.50;;;6.40;99.90;;;;;;4429854;32;20123;-68
2022/04/10 09:43:10;;;;;;;0.30;0.30;;;6.50;99.90;;;;;;4422381;32;20078;-67
2022/04/10 09:45:39;;;;;;;0.22;0.22;;;6.60;99.90;;;;;;4430978;32;20081;-68
2022/04/10 09:48:27;;;;;;;0.95;0.88;;;6.60;99.90;;;;;;4431114;32;20061;-68
2022/04/10 09:50:57;;;;;;;0.20;0.20;;;6.60;99.90;;;;;;4424957;32;20537;-68
2022/04/10 09:53:23;;;;;;;0.90;0.75;;;6.70;99.90;;;;;;4426141;32;20384;-68
2022/04/10 09:55:53;;;;;;;0.40;0.40;;;6.80;99.90;;;;;;4430122;32;20072;-68
2022/04/10 09:58:19;;;;;;;0.47;0.47;;;6.90;99.90;;;;;;4428678;32;20070;-68
2022/04/10 10:00:49;;;;;;;0.37;0.37;;;7.00;99.90;;;;;;4422557;32;20082;-68
2022/04/10 10:03:14;;;;;;;0.40;0.40;;;7.50;99.90;;;;;;4429433;32;20061;-69
2022/04/10 10:05:40;;;;;;;9.13;0.95;;;8.10;99.90;;;;;;4427555;32;20706;-69
2022/04/10 10:08:07;;;;;;;0.85;0.85;;;8.10;99.90;;;;;;4427463;32;20116;-69
2022/04/10 10:10:35;;;;;;;0.30;0.30;;;7.90;99.90;;;;;;4429207;32;20128;-69
2022/04/10 10:13:04;;;;;;;1.02;0.95;;;7.90;99.90;;;;;;4425625;32;20081;-69
2022/04/10 10:15:29;;;;;;;0.25;0.25;;;8.20;99.90;;;;;;4428880;32;20086;-69
2022/04/10 10:17:55;;;;;;;0.90;0.40;;;8.80;99.90;;;;;;4426675;32;20066;-68
2022/04/10 10:20:22;;;;;;;0.40;0.40;;;9.30;99.90;;;;;;4427797;32;20454;-68
2022/04/10 10:22:48;;;;;;;0.60;0.60;;;9.30;99.90;;;;;;4427670;32;20060;-69
2022/04/10 10:25:20;;;;;;;0.85;0.85;;;9.10;99.90;;;;;;4428286;32;20077;-69
2022/04/10 10:28:09;;;;;;;0.40;0.40;;;9.10;99.90;;;;;;4427108;32;20156;-68
2022/04/10 10:30:49;;;;;;;0.30;0.30;;;9.10;99.90;;;;;;4425099;32;20082;-68
2022/04/10 10:33:21;;;;;;;0.20;0.20;;;9.00;99.90;;;;;;4423227;32;20489;-68
2022/04/10 10:36:07;;;;;;;0.55;0.55;;;8.70;99.90;;;;;;4429264;32;20104;-68
2022/04/10 10:38:33;;;;;;;0.45;0.45;;;8.10;99.90;;;;;;4424490;32;20136;-68
2022/04/10 10:41:20;;;;;;;1.20;0.77;;;7.90;99.90;;;;;;4427814;32;20655;-69
2022/04/10 10:43:47;;;;;;;7.10;1.02;;;7.60;99.90;;;;;;4422860;32;20069;-67
2022/04/10 10:46:32;;;;;;;0.30;0.30;;;7.50;99.90;;;;;;4418822;32;20090;-68
2022/04/10 10:49:19;;;;;;;0.30;0.30;;;7.40;99.90;;;;;;4428808;32;20423;-68
2022/04/10 10:51:47;;;;;;;1.85;1.27;;;7.40;99.90;;;;;;4424463;32;20578;-69
2022/04/10 10:54:15;;;;;;;6.28;0.82;;;7.40;99.90;;;;;;4426144;32;20085;-68
2022/04/10 10:56:43;;;;;;;0.70;0.52;;;7.50;99.90;;;;;;4429631;32;20061;-68
2022/04/10 10:59:30;;;;;;;0.30;0.30;;;7.60;99.90;;;;;;4429548;32;20076;-68
2022/04/10 11:02:14;;;;;;;0.25;0.25;;;7.70;99.90;;;;;;4424664;32;20077;-68
2022/04/10 11:04:50;;;;;;;0.30;0.30;;;8.10;99.90;;;;;;4420327;32;20077;-68
2022/04/10 11:07:22;;;;;;;0.45;0.45;;;8.60;99.90;;;;;;4429468;32;20595;-68
2022/04/10 11:09:59;;;;;;;0.52;0.52;;;8.30;99.90;;;;;;4426285;32;20202;-68
2022/04/10 11:12:47;;;;;;;1.65;0.77;;;7.80;99.90;;;;;;4422384;32;20066;-69
2022/04/10 11:15:18;;;;;;;3.15;1.77;;;7.60;99.90;;;;;;4419533;32;20105;-68
2022/04/10 11:17:44;;;;;;;0.30;0.30;;;7.40;99.90;;;;;;4421833;32;20090;-68
2022/04/10 11:20:11;;;;;;;0.25;0.25;;;7.50;99.90;;;;;;4429053;32;20189;-68
2022/04/10 11:22:46;;;;;;;0.47;0.47;;;7.50;99.90;;;;;;4420569;32;20524;-68
2022/04/10 11:25:11;;;;;;;2.42;1.42;;;7.80;99.90;;;;;;4425134;32;20069;-70
2022/04/10 11:27:44;;;;;;;0.43;0.43;;;8.20;99.90;;;;;;4426017;32;20090;-68
2022/04/10 11:30:12;;;;;;;0.45;0.45;;;8.60;99.90;;;;;;4425822;32;20418;-70
2022/04/10 11:32:42;;;;;;;0.30;0.30;;;8.60;99.90;;;;;;4429371;32;20077;-69
2022/04/10 11:35:20;;;;;;;2.53;0.82;;;8.80;99.90;;;;;;4428164;32;20066;-68
2022/04/10 11:37:47;;;;;;;0.20;0.20;;;9.10;99.90;;;;;;4427966;32;20141;-69
2022/04/10 11:40:16;;;;;;;0.30;0.30;;;9.30;99.90;;;;;;4426345;32;20115;-68
2022/04/10 11:42:43;;;;;;;0.50;0.50;;;9.40;99.90;;;;;;4421806;32;20086;-68
2022/04/10 11:45:09;;;;;;;0.40;0.40;;;9.60;99.90;;;;;;4418946;32;20077;-69
2022/04/10 11:47:35;;;;;;;1.00;0.55;;;9.80;99.90;;;;;;4425968;32;20086;-69
2022/04/10 11:50:02;;;;;;;0.37;0.37;;;10.30;99.90;;;;;;4428298;32;20077;-69
2022/04/10 11:52:27;;;;;;;0.85;0.80;;;11.20;99.90;;;;;;4427671;32;20513;-69
2022/04/10 11:54:53;;;;;;;0.40;0.40;;;11.50;99.90;;;;;;4426602;32;20086;-69
2022/04/10 11:57:18;;;;;;;0.90;0.60;;;10.80;99.90;;;;;;4423285;32;20125;-68
2022/04/10 11:59:44;;;;;;;0.30;0.30;;;10.10;99.90;;;;;;4429607;32;20089;-67
2022/04/10 12:02:12;;;;;;;0.40;0.40;;;9.40;99.90;;;;;;4426733;32;20521;-71
2022/04/10 12:04:38;;;;;;;1.50;0.98;;;9.90;99.90;;;;;;4426324;32;20128;-69
2022/04/10 12:07:15;;;;;;;0.40;0.40;;;10.50;99.90;;;;;;4428733;32;20081;-68
2022/04/10 12:09:41;;;;;;;0.30;0.30;;;11.00;99.90;;;;;;4427029;32;20069;-67
2022/04/10 12:12:07;;;;;;;0.30;0.30;;;10.50;99.90;;;;;;4422425;32;20436;-68
2022/04/10 12:14:33;;;;;;;0.93;0.60;;;10.50;99.90;;;;;;4426905;32;20078;-68
2022/04/10 12:16:59;;;;;;;0.88;0.70;;;10.80;99.90;;;;;;4428277;32;20078;-68
2022/04/10 12:19:35;;;;;;;0.30;0.30;;;10.90;99.90;;;;;;4421086;32;20073;-68
2022/04/10 12:22:03;;;;;;;3.85;0.95;;;10.80;99.90;;;;;;4424175;32;20077;-67
2022/04/10 12:24:29;;;;;;;2.70;0.60;;;10.50;99.90;;;;;;4426571;32;20162;-67
2022/04/10 12:26:57;;;;;;;0.30;0.30;;;10.10;99.90;;;;;;4429485;32;20085;-68
2022/04/10 12:29:23;;;;;;;0.60;0.60;;;9.90;99.90;;;;;;4417826;32;20081;-68
2022/04/10 12:31:49;;;;;;;4.68;0.60;;;9.90;99.90;;;;;;4422090;32;20069;-68
2022/04/10 12:34:15;;;;;;;0.37;0.37;;;9.80;99.90;;;;;;4430448;32;20786;-68
2022/04/10 12:36:46;;;;;;;1.05;0.95;;;9.50;99.90;;;;;;4430373;32;20029;-68
2022/04/10 12:39:24;;;;;;;0.30;0.30;;;9.50;99.90;;;;;;4431123;32;20517;-68
2022/04/10 12:42:10;;;;;;;2.35;0.62;;;9.40;99.90;;;;;;4428586;32;20093;-68
2022/04/10 12:44:37;;;;;;;0.37;0.37;;;9.60;99.90;;;;;;4423952;32;20073;-68
2022/04/10 12:47:06;;;;;;;0.75;0.70;;;10.20;99.90;;;;;;4428644;32;20061;-69
2022/04/10 12:49:32;;;;;;;0.60;0.60;;;10.70;99.90;;;;;;4428004;32;20090;-69
2022/04/10 12:52:02;;;;;;;0.32;0.32;;;11.00;99.90;;;;;;4424081;32;20070;-69
2022/04/10 12:54:37;;;;;;;0.52;0.52;;;10.70;99.90;;;;;;4430751;32;20078;-69
2022/04/10 12:57:05;;;;;;;2.58;1.05;;;10.10;99.90;;;;;;4431588;32;20078;-68